Time,TemperatureF,DewpointF,PressureIn,WindDirection,WindDirectionDegrees,WindSpeedMPH,WindSpeedGustMPH,Humidity,HourlyPrecipIn,Conditions,Clouds,dailyrainin,SolarRadiationWatts/m^2,SoftwareType,DateUTC
2013-01-11 00:12:00,35.0,35.0,-100.00,SSE,160,7.0,12.0,100,0.00,,,0.23,1.000000,,2013-01-11 06:12:00,
2013-01-11 00:22:00,35.0,35.0,-100.00,SSE,160,7.0,12.0,100,0.00,,,0.23,1.000000,,2013-01-11 06:22:00,
2013-01-11 00:32:00,35.0,35.0,-100.00,SSE,160,7.0,12.0,100,0.00,,,0.23,1.000000,,2013-01-11 06:32:00,
2013-01-11 00:42:00,35.0,35.0,-100.00,SSE,160,7.0,12.0,100,0.00,,,0.23,1.000000,,2013-01-11 06:42:00,
2013-01-11 01:12:00,35.0,35.0,-100.00,SSE,157,5.0,10.0,100,0.00,,,0.23,1.000000,,2013-01-11 07:12:00,
2013-01-11 01:22:00,35.0,35.0,-100.00,SSE,157,5.0,10.0,100,0.00,,,0.23,1.000000,,2013-01-11 07:22:00,
2013-01-11 01:32:00,35.0,35.0,-100.00,SSE,157,5.0,10.0,100,0.00,,,0.23,1.000000,,2013-01-11 07:32:00,
2013-01-11 01:42:00,35.0,35.0,-100.00,SSE,157,5.0,10.0,100,0.00,,,0.23,1.000000,,2013-01-11 07:42:00,
2013-01-11 02:12:00,35.0,35.0,-100.00,SSE,154,3.0,8.0,100,0.00,,,0.23,1.000000,,2013-01-11 08:12:00,
2013-01-11 02:22:00,35.0,35.0,-100.00,SSE,154,3.0,8.0,100,0.00,,,0.23,1.000000,,2013-01-11 08:22:00,
2013-01-11 02:32:00,35.0,35.0,-100.00,SSE,154,3.0,8.0,100,0.00,,,0.23,1.000000,,2013-01-11 08:32:00,
2013-01-11 02:42:00,35.0,35.0,-100.00,SSE,154,3.0,8.0,100,0.00,,,0.23,1.000000,,2013-01-11 08:42:00,
2013-01-11 03:12:00,35.0,35.0,-100.00,SSE,164,5.0,9.0,100,0.01,,,0.24,1.000000,,2013-01-11 09:12:00,
2013-01-11 03:22:00,35.0,35.0,-100.00,SSE,164,5.0,9.0,100,0.01,,,0.24,1.000000,,2013-01-11 09:22:00,
2013-01-11 03:32:00,35.0,35.0,-100.00,SSE,164,5.0,9.0,100,0.01,,,0.24,1.000000,,2013-01-11 09:32:00,
2013-01-11 03:42:00,35.0,35.0,-100.00,SSE,164,5.0,9.0,100,0.01,,,0.24,1.000000,,2013-01-11 09:42:00,
2013-01-11 04:12:00,35.0,35.0,-100.00,SSE,163,6.0,10.0,100,0.00,,,0.24,1.000000,,2013-01-11 10:12:00,
2013-01-11 04:22:00,35.0,35.0,-100.00,SSE,163,6.0,10.0,100,0.00,,,0.24,1.000000,,2013-01-11 10:22:00,
2013-01-11 04:32:00,35.0,35.0,-100.00,SSE,163,6.0,10.0,100,0.00,,,0.24,1.000000,,2013-01-11 10:32:00,
2013-01-11 04:42:00,35.0,35.0,-100.00,SSE,163,6.0,10.0,100,0.00,,,0.24,1.000000,,2013-01-11 10:42:00,
2013-01-11 05:12:00,35.0,35.0,-100.00,SSE,157,6.0,9.0,100,0.00,,,0.24,1.000000,,2013-01-11 11:12:00,
2013-01-11 05:22:00,35.0,35.0,-100.00,SSE,157,6.0,9.0,100,0.00,,,0.24,1.000000,,2013-01-11 11:22:00,
2013-01-11 05:33:00,35.0,35.0,-100.00,SSE,157,6.0,9.0,100,0.00,,,0.24,1.000000,,2013-01-11 11:33:00,
2013-01-11 05:42:00,35.0,35.0,-100.00,SSE,157,6.0,9.0,100,0.00,,,0.24,1.000000,,2013-01-11 11:42:00,
2013-01-11 06:12:00,35.0,35.0,-100.00,South,171,4.0,8.0,100,0.00,,,0.24,1.000000,,2013-01-11 12:12:00,
2013-01-11 06:22:00,35.0,35.0,-100.00,South,171,4.0,8.0,100,0.00,,,0.24,1.000000,,2013-01-11 12:22:00,
2013-01-11 06:33:00,35.0,35.0,-100.00,South,171,4.0,8.0,100,0.00,,,0.24,1.000000,,2013-01-11 12:33:00,
2013-01-11 06:42:00,35.0,35.0,-100.00,South,171,4.0,8.0,100,0.00,,,0.24,1.000000,,2013-01-11 12:42:00,
2013-01-11 07:13:00,35.0,35.0,-100.00,SE,145,4.0,7.0,100,0.00,,,-99.99,1.000000,,2013-01-11 13:13:00,
2013-01-11 07:22:00,35.0,35.0,-100.00,SE,145,4.0,7.0,100,0.00,,,-99.99,1.000000,,2013-01-11 13:22:00,
2013-01-11 07:33:00,35.0,35.0,-100.00,SE,145,4.0,7.0,100,0.00,,,-99.99,1.000000,,2013-01-11 13:33:00,
2013-01-11 07:42:00,35.0,35.0,-100.00,SE,145,4.0,7.0,100,0.00,,,-99.99,1.000000,,2013-01-11 13:42:00,
2013-01-11 08:12:00,35.0,35.0,-100.00,South,186,4.0,7.0,100,0.00,,,0.24,1.000000,,2013-01-11 14:12:00,
2013-01-11 08:23:00,35.0,35.0,-100.00,South,186,4.0,7.0,100,0.00,,,0.24,1.000000,,2013-01-11 14:23:00,
2013-01-11 08:33:00,35.0,35.0,-100.00,South,186,4.0,7.0,100,0.00,,,0.24,1.000000,,2013-01-11 14:33:00,
2013-01-11 08:42:00,35.0,35.0,-100.00,South,186,4.0,7.0,100,0.00,,,0.24,1.000000,,2013-01-11 14:42:00,
2013-01-11 09:13:00,36.0,36.0,-100.00,South,174,5.0,7.0,100,0.00,,,0.24,25.000000,,2013-01-11 15:13:00,
2013-01-11 09:23:00,36.0,36.0,-100.00,South,174,5.0,7.0,100,0.00,,,0.24,25.000000,,2013-01-11 15:23:00,
2013-01-11 09:33:00,36.0,36.0,-100.00,South,174,5.0,7.0,100,0.00,,,0.24,25.000000,,2013-01-11 15:33:00,
2013-01-11 09:43:00,36.0,36.0,-100.00,South,174,5.0,7.0,100,0.00,,,0.24,25.000000,,2013-01-11 15:43:00,
2013-01-11 10:12:00,37.0,37.0,-100.00,South,185,6.0,10.0,100,0.00,,,0.24,54.000000,,2013-01-11 16:12:00,
2013-01-11 10:22:00,37.0,37.0,-100.00,South,185,6.0,10.0,100,0.00,,,0.24,54.000000,,2013-01-11 16:22:00,
2013-01-11 10:33:00,37.0,37.0,-100.00,South,185,6.0,10.0,100,0.00,,,0.24,54.000000,,2013-01-11 16:33:00,
2013-01-11 10:42:00,37.0,37.0,-100.00,South,185,6.0,10.0,100,0.00,,,0.24,54.000000,,2013-01-11 16:42:00,
2013-01-11 11:12:00,37.0,37.0,-100.00,South,177,5.0,9.0,100,0.00,,,0.24,64.000000,,2013-01-11 17:12:00,
2013-01-11 11:22:00,37.0,37.0,-100.00,South,177,5.0,9.0,100,0.00,,,0.24,64.000000,,2013-01-11 17:22:00,
2013-01-11 11:33:00,37.0,37.0,-100.00,South,177,5.0,9.0,100,0.00,,,0.24,64.000000,,2013-01-11 17:33:00,
2013-01-11 11:43:00,37.0,37.0,-100.00,South,177,5.0,9.0,100,0.00,,,0.24,64.000000,,2013-01-11 17:43:00,
2013-01-11 12:13:00,37.0,37.0,-100.00,South,179,5.0,7.0,100,0.00,,,0.24,53.000000,,2013-01-11 18:13:00,
2013-01-11 12:23:00,37.0,37.0,-100.00,South,179,5.0,7.0,100,0.00,,,0.24,53.000000,,2013-01-11 18:23:00,
2013-01-11 12:33:00,37.0,37.0,-100.00,South,179,5.0,7.0,100,0.00,,,0.24,53.000000,,2013-01-11 18:33:00,
2013-01-11 12:43:00,37.0,37.0,-100.00,South,179,5.0,7.0,100,0.00,,,0.24,53.000000,,2013-01-11 18:43:00,
2013-01-11 13:12:00,38.0,38.0,-100.00,South,176,6.0,10.0,100,0.00,,,0.24,69.000000,,2013-01-11 19:12:00,
2013-01-11 13:22:00,38.0,38.0,-100.00,South,176,6.0,10.0,100,0.00,,,0.24,69.000000,,2013-01-11 19:22:00,
2013-01-11 13:32:00,38.0,38.0,-100.00,South,176,6.0,10.0,100,0.00,,,0.24,69.000000,,2013-01-11 19:32:00,
2013-01-11 13:43:00,38.0,38.0,-100.00,South,176,6.0,10.0,100,0.00,,,0.24,69.000000,,2013-01-11 19:43:00,
2013-01-11 14:12:00,38.0,38.0,-100.00,SSW,192,6.0,10.0,100,0.00,,,0.24,66.000000,,2013-01-11 20:12:00,
2013-01-11 14:22:00,38.0,38.0,-100.00,SSW,192,6.0,10.0,100,0.00,,,0.24,66.000000,,2013-01-11 20:22:00,
2013-01-11 14:33:00,38.0,38.0,-100.00,SSW,192,6.0,10.0,100,0.00,,,0.24,66.000000,,2013-01-11 20:33:00,
2013-01-11 14:43:00,38.0,38.0,-100.00,SSW,192,6.0,10.0,100,0.00,,,0.24,66.000000,,2013-01-11 20:43:00,
2013-01-11 15:12:00,38.0,38.0,-100.00,SSE,148,4.0,10.0,100,0.00,,,0.24,43.000000,,2013-01-11 21:12:00,
2013-01-11 15:23:00,38.0,38.0,-100.00,SSE,148,4.0,10.0,100,0.00,,,0.24,43.000000,,2013-01-11 21:23:00,
2013-01-11 15:33:00,38.0,38.0,-100.00,SSE,148,4.0,10.0,100,0.00,,,0.24,43.000000,,2013-01-11 21:33:00,
2013-01-11 15:42:00,38.0,38.0,-100.00,SSE,148,4.0,10.0,100,0.00,,,0.24,43.000000,,2013-01-11 21:42:00,
2013-01-11 16:12:00,37.0,37.0,-100.00,ESE,118,2.0,9.0,100,0.01,,,0.25,30.000000,,2013-01-11 22:12:00,
2013-01-11 16:22:00,37.0,37.0,-100.00,ESE,118,2.0,9.0,100,0.01,,,0.25,30.000000,,2013-01-11 22:22:00,
2013-01-11 16:33:00,37.0,37.0,-100.00,ESE,118,2.0,9.0,100,0.01,,,0.25,30.000000,,2013-01-11 22:33:00,
2013-01-11 16:42:00,37.0,37.0,-100.00,ESE,118,2.0,9.0,100,0.01,,,0.25,30.000000,,2013-01-11 22:42:00,
2013-01-11 17:13:00,38.0,38.0,-100.00,SE,134,3.0,7.0,100,0.00,,,0.23,10.000000,,2013-01-11 23:13:00,
2013-01-11 17:22:00,38.0,38.0,-100.00,SE,134,3.0,7.0,100,0.00,,,0.23,10.000000,,2013-01-11 23:22:00,
2013-01-11 17:32:00,38.0,38.0,-100.00,SE,134,3.0,7.0,100,0.00,,,0.23,10.000000,,2013-01-11 23:32:00,
2013-01-11 17:43:00,38.0,38.0,-100.00,SE,134,3.0,7.0,100,0.00,,,0.23,10.000000,,2013-01-11 23:43:00,
2013-01-11 18:12:00,40.0,40.0,-100.00,SSE,154,5.0,10.0,100,0.00,,,0.17,1.000000,,2013-01-12 00:12:00,
2013-01-11 18:23:00,40.0,40.0,-100.00,SSE,154,5.0,10.0,100,0.00,,,0.17,1.000000,,2013-01-12 00:23:00,
2013-01-11 18:32:00,40.0,40.0,-100.00,SSE,154,5.0,10.0,100,0.00,,,0.17,1.000000,,2013-01-12 00:32:00,
2013-01-11 18:43:00,40.0,40.0,-100.00,SSE,154,5.0,10.0,100,0.00,,,0.17,1.000000,,2013-01-12 00:43:00,
2013-01-11 19:12:00,41.0,41.0,-100.00,SSE,163,8.0,15.0,100,0.00,,,0.12,1.000000,,2013-01-12 01:12:00,
2013-01-11 19:22:00,41.0,41.0,-100.00,SSE,163,8.0,15.0,100,0.00,,,0.12,1.000000,,2013-01-12 01:22:00,
2013-01-11 19:33:00,41.0,41.0,-100.00,SSE,163,8.0,15.0,100,0.00,,,0.12,1.000000,,2013-01-12 01:33:00,
2013-01-11 19:43:00,41.0,41.0,-100.00,SSE,163,8.0,15.0,100,0.00,,,0.12,1.000000,,2013-01-12 01:43:00,
2013-01-11 20:12:00,40.0,40.0,-100.00,SSW,194,7.0,15.0,100,0.00,,,0.08,1.000000,,2013-01-12 02:12:00,
2013-01-11 20:22:00,40.0,40.0,-100.00,SSW,194,7.0,15.0,100,0.00,,,0.08,1.000000,,2013-01-12 02:22:00,
2013-01-11 20:33:00,40.0,40.0,-100.00,SSW,194,7.0,15.0,100,0.00,,,0.08,1.000000,,2013-01-12 02:33:00,
2013-01-11 20:43:00,40.0,40.0,-100.00,SSW,194,7.0,15.0,100,0.00,,,0.08,1.000000,,2013-01-12 02:43:00,
2013-01-11 21:12:00,40.0,40.0,-100.00,SSW,200,6.0,11.0,100,0.00,,,0.02,1.000000,,2013-01-12 03:12:00,
2013-01-11 21:22:00,40.0,40.0,-100.00,SSW,200,6.0,11.0,100,0.00,,,0.02,1.000000,,2013-01-12 03:22:00,
2013-01-11 21:33:00,40.0,40.0,-100.00,SSW,200,6.0,11.0,100,0.00,,,0.02,1.000000,,2013-01-12 03:33:00,
2013-01-11 21:43:00,40.0,40.0,-100.00,SSW,200,6.0,11.0,100,0.00,,,0.02,1.000000,,2013-01-12 03:43:00,
2013-01-11 22:12:00,40.0,40.0,-100.00,SSW,194,7.0,12.0,100,0.00,,,0.02,1.000000,,2013-01-12 04:12:00,
2013-01-11 22:22:00,40.0,40.0,-100.00,SSW,194,7.0,12.0,100,0.00,,,0.02,1.000000,,2013-01-12 04:22:00,
2013-01-11 22:32:00,40.0,40.0,-100.00,SSW,194,7.0,12.0,100,0.00,,,0.02,1.000000,,2013-01-12 04:32:00,
2013-01-11 22:42:00,40.0,40.0,-100.00,SSW,194,7.0,12.0,100,0.00,,,0.02,1.000000,,2013-01-12 04:42:00,
2013-01-11 23:12:00,40.0,40.0,-100.00,SW,215,7.0,15.0,100,0.00,,,0.02,1.000000,,2013-01-12 05:12:00,
2013-01-11 23:22:00,40.0,40.0,-100.00,SW,215,7.0,15.0,100,0.00,,,0.02,1.000000,,2013-01-12 05:22:00,
2013-01-11 23:32:00,40.0,40.0,-100.00,SW,215,7.0,15.0,100,0.00,,,0.02,1.000000,,2013-01-12 05:32:00,
2013-01-11 23:42:00,40.0,40.0,-100.00,SW,215,7.0,15.0,100,0.00,,,0.02,1.000000,,2013-01-12 05:42:00,